createdAt,value
2022-09-14T00:01:25.275Z,100328.19
2022-09-14T00:03:53.964Z,100331.94
2022-09-14T00:06:20.566Z,100329.44
2022-09-14T00:08:50.834Z,100326.66
2022-09-14T00:11:17.413Z,100323.63
2022-09-14T00:13:45.048Z,100316.28
2022-09-14T00:16:21.741Z,100320.19
2022-09-14T00:18:57.320Z,100314.69
2022-09-14T00:21:24.346Z,100307.97
2022-09-14T00:23:50.969Z,100308.75
2022-09-14T00:26:22.054Z,100301.53
2022-09-14T00:28:54.952Z,100303.84
2022-09-14T00:31:22.455Z,100301.84
2022-09-14T00:33:50.590Z,100294.22
2022-09-14T00:36:28.837Z,100285.22
2022-09-14T00:38:57.153Z,100272.72
2022-09-14T00:41:28.711Z,100262.66
2022-09-14T00:44:02.309Z,100261.81
2022-09-14T00:46:31.369Z,100254.59
2022-09-14T00:49:00.160Z,100244.75
2022-09-14T00:51:27.915Z,100242.56
2022-09-14T00:53:55.397Z,100237.75
2022-09-14T00:56:22.008Z,100243.78
2022-09-14T00:58:51.542Z,100245.53
2022-09-14T01:01:18.294Z,100235.34
2022-09-14T01:03:44.984Z,100228.91
2022-09-14T01:06:20.892Z,100237.97
2022-09-14T01:09:06.175Z,100234.00
2022-09-14T01:11:40.153Z,100237.75
2022-09-14T01:14:14.544Z,100243.84
2022-09-14T01:17:06.849Z,100234.78
2022-09-14T01:19:48.583Z,100237.53
2022-09-14T01:22:19.372Z,100232.44
2022-09-14T01:24:49.494Z,100221.47
2022-09-14T01:27:24.304Z,100211.78
2022-09-14T01:29:58.212Z,100220.31
2022-09-14T01:32:29.075Z,100223.53
2022-09-14T01:35:08.071Z,100224.53
2022-09-14T01:37:59.475Z,100232.19
2022-09-14T01:40:29.588Z,100222.84
2022-09-14T01:43:22.695Z,100221.34
2022-09-14T01:46:11.699Z,100218.50
2022-09-14T01:48:45.434Z,100227.19
2022-09-14T01:51:18.202Z,100220.97
2022-09-14T01:53:48.660Z,100235.63
2022-09-14T01:56:25.287Z,100221.50
2022-09-14T01:58:57.447Z,100221.72
2022-09-14T02:01:40.262Z,100220.28
2022-09-14T02:04:09.507Z,100222.63
2022-09-14T02:06:39.987Z,100219.66
2022-09-14T02:09:09.368Z,100226.88
2022-09-14T02:11:36.058Z,100222.56
2022-09-14T02:14:02.718Z,100228.19
2022-09-14T02:16:29.424Z,100224.78
2022-09-14T02:18:56.085Z,100223.09
2022-09-14T02:21:31.043Z,100223.09
2022-09-14T02:23:59.216Z,100222.44
2022-09-14T02:26:26.273Z,100222.97
2022-09-14T02:28:56.265Z,100220.97
2022-09-14T02:31:25.970Z,100216.72
2022-09-14T02:34:17.445Z,100209.81
2022-09-14T02:37:14.507Z,100216.81
2022-09-14T02:39:52.639Z,100223.19
2022-09-14T02:42:41.223Z,100216.72
2022-09-14T02:45:32.627Z,100213.69
2022-09-14T02:48:09.367Z,100213.50
2022-09-14T02:51:06.565Z,100202.06
2022-09-14T02:53:40.245Z,100206.00
2022-09-14T02:56:09.033Z,100210.91
2022-09-14T02:58:37.649Z,100205.66
2022-09-14T03:01:05.760Z,100201.75
2022-09-14T03:03:35.671Z,100195.00
2022-09-14T03:06:02.769Z,100197.09
2022-09-14T03:08:29.450Z,100193.69
2022-09-14T03:10:56.059Z,100191.00
2022-09-14T03:13:22.746Z,100182.94
2022-09-14T03:15:49.350Z,100180.44
2022-09-14T03:18:16.120Z,100181.66
2022-09-14T03:20:43.313Z,100173.06
2022-09-14T03:23:11.331Z,100173.53
2022-09-14T03:25:39.944Z,100173.13
2022-09-14T03:28:07.488Z,100162.63
2022-09-14T03:30:34.301Z,100162.69
2022-09-14T03:33:01.184Z,100159.31
2022-09-14T03:35:30.727Z,100159.13
2022-09-14T03:37:58.269Z,100154.06
2022-09-14T03:40:25.442Z,100154.38
2022-09-14T03:42:52.466Z,100150.44
2022-09-14T03:45:19.994Z,100147.53
2022-09-14T03:47:49.334Z,100152.22
2022-09-14T03:50:16.856Z,100145.69
2022-09-14T03:52:43.481Z,100151.28
2022-09-14T03:55:10.906Z,100145.41
2022-09-14T03:57:37.658Z,100143.41
2022-09-14T04:00:06.592Z,100145.31
2022-09-14T04:02:33.210Z,100145.03
2022-09-14T04:04:59.876Z,100143.47
2022-09-14T04:07:26.675Z,100141.22
2022-09-14T04:09:53.223Z,100151.53
2022-09-14T04:12:19.848Z,100140.50
2022-09-14T04:14:46.476Z,100142.34
2022-09-14T04:17:13.114Z,100148.72
2022-09-14T04:19:42.337Z,100148.31
2022-09-14T04:22:09.092Z,100160.06
2022-09-14T04:24:35.857Z,100147.75
2022-09-14T04:27:02.512Z,100154.81
2022-09-14T04:29:30.711Z,100150.88
2022-09-14T04:31:57.728Z,100145.41
2022-09-14T04:34:24.479Z,100147.38
2022-09-14T04:36:51.119Z,100147.06
2022-09-14T04:39:17.908Z,100144.28
2022-09-14T04:41:44.477Z,100145.53
2022-09-14T04:44:11.287Z,100148.06
2022-09-14T04:46:45.054Z,100145.84
2022-09-14T04:49:13.084Z,100151.41
2022-09-14T04:51:39.772Z,100149.16
2022-09-14T04:54:06.989Z,100146.59
2022-09-14T04:56:35.680Z,100151.41
2022-09-14T04:59:04.515Z,100147.06
2022-09-14T05:01:45.747Z,100145.97
2022-09-14T05:04:12.523Z,100142.59
2022-09-14T05:06:40.959Z,100144.03
2022-09-14T05:09:17.478Z,100139.81
2022-09-14T05:11:44.569Z,100144.19
2022-09-14T05:14:13.195Z,100138.06
2022-09-14T05:16:41.267Z,100139.66
2022-09-14T05:19:11.669Z,100147.00
2022-09-14T05:21:38.283Z,100142.19
2022-09-14T05:24:15.846Z,100142.66
2022-09-14T05:26:43.575Z,100140.25
2022-09-14T05:29:15.775Z,100135.94
2022-09-14T05:31:42.532Z,100140.47
2022-09-14T05:34:10.356Z,100135.69
2022-09-14T05:36:37.963Z,100141.50
2022-09-14T05:39:05.524Z,100150.16
2022-09-14T05:41:32.170Z,100147.19
2022-09-14T05:43:59.457Z,100142.13
2022-09-14T05:46:26.589Z,100137.59
2022-09-14T05:48:53.237Z,100137.97
2022-09-14T05:51:22.218Z,100133.88
2022-09-14T05:53:57.080Z,100121.31
2022-09-14T05:56:25.132Z,100132.22
2022-09-14T05:58:52.089Z,100124.91
2022-09-14T06:01:21.534Z,100129.41
2022-09-14T06:03:49.251Z,100128.03
2022-09-14T06:06:17.842Z,100122.91
2022-09-14T06:08:44.886Z,100123.34
2022-09-14T06:11:17.261Z,100127.28
2022-09-14T06:13:46.768Z,100129.19
2022-09-14T06:16:18.425Z,100127.63
2022-09-14T06:18:45.743Z,100131.28
2022-09-14T06:21:15.287Z,100128.88
2022-09-14T06:23:41.919Z,100139.84
2022-09-14T06:26:08.809Z,100139.31
2022-09-14T06:28:35.892Z,100137.75
2022-09-14T06:31:04.615Z,100136.47
2022-09-14T06:33:32.110Z,100131.56
2022-09-14T06:36:12.629Z,100128.75
2022-09-14T06:38:40.522Z,100132.84
2022-09-14T06:41:09.266Z,100131.59
2022-09-14T06:43:38.725Z,100138.47
2022-09-14T06:46:07.504Z,100131.44
2022-09-14T06:48:36.980Z,100125.38
2022-09-14T06:51:19.884Z,100132.84
2022-09-14T06:53:47.905Z,100130.19
2022-09-14T06:56:15.340Z,100134.56
2022-09-14T06:58:42.335Z,100132.84
2022-09-14T07:01:12.143Z,100131.44
2022-09-14T07:03:39.563Z,100138.22
2022-09-14T07:06:09.047Z,100127.22
2022-09-14T07:08:36.859Z,100131.19
2022-09-14T07:11:04.281Z,100139.81
2022-09-14T07:13:31.804Z,100135.84
2022-09-14T07:15:58.549Z,100133.16
2022-09-14T07:18:32.643Z,100139.81
2022-09-14T07:21:05.567Z,100144.31
2022-09-14T07:23:32.970Z,100144.34
2022-09-14T07:26:05.165Z,100149.88
2022-09-14T07:28:33.106Z,100150.69
2022-09-14T07:31:00.573Z,100151.25
2022-09-14T07:33:27.622Z,100147.59
2022-09-14T07:35:54.314Z,100156.03
2022-09-14T07:38:35.794Z,100152.09
2022-09-14T07:41:07.933Z,100149.81
2022-09-14T07:43:35.101Z,100152.22
2022-09-14T07:46:04.383Z,100146.03
2022-09-14T07:48:32.068Z,100142.50
2022-09-14T07:51:03.220Z,100129.22
2022-09-14T07:53:30.284Z,100134.22
2022-09-14T07:56:01.521Z,100135.91
2022-09-14T07:58:31.678Z,100134.22
2022-09-14T08:00:59.875Z,100130.69
2022-09-14T08:03:28.976Z,100134.34
2022-09-14T08:06:16.046Z,100133.09
2022-09-14T08:08:44.750Z,100131.13
2022-09-14T08:11:13.811Z,100135.38
2022-09-14T08:13:42.892Z,100137.34
2022-09-14T08:16:09.724Z,100133.38
2022-09-14T08:18:37.149Z,100125.88
2022-09-14T08:21:14.717Z,100130.09
2022-09-14T08:23:42.014Z,100117.41
2022-09-14T08:26:14.268Z,100120.53
2022-09-14T08:28:41.549Z,100119.00
2022-09-14T08:31:13.370Z,100116.16
2022-09-14T08:33:43.293Z,100111.19
2022-09-14T08:36:12.397Z,100103.56
2022-09-14T08:38:39.130Z,100108.81
2022-09-14T08:41:36.681Z,100099.94
2022-09-14T08:44:33.656Z,100105.13
2022-09-14T08:47:25.707Z,100102.44
2022-09-14T08:49:57.443Z,100103.03
2022-09-14T08:52:35.862Z,100100.88
2022-09-14T08:55:33.108Z,100100.59
2022-09-14T08:58:17.975Z,100113.16
2022-09-14T09:01:07.998Z,100110.34
2022-09-14T09:03:53.263Z,100112.75
2022-09-14T09:06:28.085Z,100110.75
2022-09-14T09:09:32.549Z,100108.06
2022-09-14T09:11:59.602Z,100106.22
2022-09-14T09:14:31.923Z,100100.97
2022-09-14T09:17:01.315Z,100103.50
2022-09-14T09:19:33.245Z,100104.09
2022-09-14T09:22:00.246Z,100109.19
2022-09-14T09:24:48.328Z,100109.50
2022-09-14T09:27:16.196Z,100113.16
2022-09-14T09:29:42.991Z,100115.25
2022-09-14T09:32:21.418Z,100121.63
2022-09-14T09:34:48.121Z,100120.75
2022-09-14T09:37:16.437Z,100116.81
2022-09-14T09:39:43.960Z,100119.50
2022-09-14T09:42:24.862Z,100124.72
2022-09-14T09:45:00.693Z,100121.22
2022-09-14T09:47:30.256Z,100122.50
2022-09-14T09:50:03.329Z,100119.09
2022-09-14T09:52:32.549Z,100118.41
2022-09-14T09:55:00.429Z,100123.06
2022-09-14T09:57:34.214Z,100122.91
2022-09-14T10:00:22.911Z,100131.63
2022-09-14T10:02:49.784Z,100128.84
2022-09-14T10:05:21.567Z,100128.41
2022-09-14T10:07:54.320Z,100119.38
2022-09-14T10:10:26.921Z,100117.09
2022-09-14T10:12:56.397Z,100124.56
2022-09-14T10:15:25.113Z,100128.66
2022-09-14T10:18:10.795Z,100123.16
2022-09-14T10:20:54.037Z,100121.63
2022-09-14T10:23:20.681Z,100116.56
2022-09-14T10:25:49.364Z,100112.03
2022-09-14T10:28:29.192Z,100113.00
2022-09-14T10:31:06.466Z,100110.03
2022-09-14T10:33:35.298Z,100118.22
2022-09-14T10:36:13.322Z,100110.28
2022-09-14T10:38:43.951Z,100098.00
2022-09-14T10:41:31.391Z,100104.09
2022-09-14T10:44:21.753Z,100114.41
2022-09-14T10:46:48.312Z,100113.28
2022-09-14T10:49:41.022Z,100111.47
2022-09-14T10:52:20.470Z,100100.44
2022-09-14T10:55:03.530Z,100095.66
2022-09-14T10:57:45.320Z,100090.88
2022-09-14T11:00:14.804Z,100091.72
2022-09-14T11:03:02.797Z,100092.81
2022-09-14T11:05:43.440Z,100085.47
2022-09-14T11:08:30.366Z,100099.25
2022-09-14T11:11:24.924Z,100077.22
2022-09-14T11:14:10.064Z,100082.44
2022-09-14T11:16:36.602Z,100093.03
2022-09-14T11:19:20.993Z,100088.78
2022-09-14T11:21:53.806Z,100075.38
2022-09-14T11:24:33.085Z,100077.47
2022-09-14T11:27:11.945Z,100067.19
2022-09-14T11:29:50.845Z,100050.81
2022-09-14T11:32:23.730Z,100059.44
2022-09-14T11:34:56.628Z,100063.69
2022-09-14T11:38:03.459Z,100079.59
2022-09-14T11:40:38.109Z,100079.84
2022-09-14T11:43:12.828Z,100059.25
2022-09-14T11:45:47.032Z,100070.16
2022-09-14T11:48:43.205Z,100077.59
2022-09-14T11:51:16.922Z,100058.44
2022-09-14T11:53:44.382Z,100062.13
2022-09-14T11:56:31.695Z,100078.22
2022-09-14T11:59:00.858Z,100084.59
2022-09-14T12:01:38.261Z,100073.19
2022-09-14T12:04:14.572Z,100061.09
2022-09-14T12:06:45.665Z,100064.59
2022-09-14T12:09:32.116Z,100064.03
2022-09-14T12:11:59.848Z,100056.28
2022-09-14T12:14:27.481Z,100064.44
2022-09-14T12:20:58.435Z,100067.56
2022-09-14T12:23:37.200Z,100062.78
2022-09-14T12:26:11.566Z,100061.66
2022-09-14T12:28:38.145Z,100056.44
2022-09-14T12:31:04.773Z,100050.94
2022-09-14T12:33:31.528Z,100053.19
2022-09-14T12:36:01.766Z,100048.16
2022-09-14T12:38:31.547Z,100055.59
2022-09-14T12:41:18.430Z,100050.66
2022-09-14T12:43:51.313Z,100057.28
2022-09-14T12:46:22.442Z,100072.06
2022-09-14T12:48:49.182Z,100081.56
2022-09-14T12:51:28.528Z,100073.06
2022-09-14T12:54:16.753Z,100056.59
2022-09-14T12:57:02.407Z,100058.16
2022-09-14T13:00:05.110Z,100063.50
2022-09-14T13:02:53.642Z,100052.09
2022-09-14T13:05:26.360Z,100039.81
2022-09-14T13:07:54.313Z,100056.59
2022-09-14T13:10:25.972Z,100059.59
2022-09-14T13:12:52.799Z,100048.88
2022-09-14T13:15:21.632Z,100037.72
2022-09-14T13:18:28.330Z,100026.72
2022-09-14T13:20:57.451Z,100024.03
2022-09-14T13:23:31.300Z,100027.72
2022-09-14T13:25:58.685Z,100030.25
2022-09-14T13:28:28.430Z,100035.03
2022-09-14T13:30:56.795Z,100023.78
2022-09-14T13:33:23.852Z,100028.84
2022-09-14T13:35:56.616Z,100024.63
2022-09-14T13:38:24.978Z,100024.50
2022-09-14T13:40:53.967Z,100016.00
2022-09-14T13:43:21.710Z,100009.41
2022-09-14T13:45:49.776Z,99998.69
2022-09-14T13:48:17.432Z,100000.00
2022-09-14T13:50:47.544Z,99995.44
2022-09-14T13:53:36.717Z,99999.28
2022-09-14T13:56:28.199Z,99996.34
2022-09-14T13:59:06.972Z,99998.84
2022-09-14T14:01:36.773Z,99997.81
2022-09-14T14:04:03.961Z,100005.97
2022-09-14T14:06:32.802Z,99999.38
2022-09-14T14:08:59.387Z,99995.41
2022-09-14T14:11:30.801Z,99987.66
2022-09-14T14:14:09.021Z,99992.19
2022-09-14T14:16:35.664Z,99990.88
2022-09-14T14:19:02.336Z,99982.00
2022-09-14T14:21:32.276Z,99987.03
2022-09-14T14:24:23.449Z,99988.16
2022-09-14T14:26:53.542Z,99986.16
2022-09-14T14:29:20.367Z,99982.94
2022-09-14T14:31:47.082Z,99985.16
2022-09-14T14:34:19.556Z,99991.75
2022-09-14T14:36:48.029Z,99984.56
2022-09-14T14:39:14.716Z,99980.31
2022-09-14T14:41:41.335Z,99979.31
2022-09-14T14:44:12.239Z,99977.69
2022-09-14T14:46:38.826Z,99974.19
2022-09-14T14:49:05.429Z,99970.84
2022-09-14T14:51:32.012Z,99966.78
2022-09-14T14:53:58.565Z,99967.22
2022-09-14T14:56:25.212Z,99966.66
2022-09-14T14:58:51.870Z,99968.94
2022-09-14T15:01:18.521Z,99975.28
2022-09-14T15:03:45.269Z,99970.84
2022-09-14T15:06:19.317Z,99977.06
2022-09-14T15:08:45.918Z,99975.09
2022-09-14T15:11:17.931Z,99969.13
2022-09-14T15:13:45.794Z,99961.34
2022-09-14T15:16:13.631Z,99964.56
2022-09-14T15:18:40.645Z,99964.69
2022-09-14T15:21:07.473Z,99956.25
2022-09-14T15:23:34.390Z,99954.69
2022-09-14T15:26:01.069Z,99955.69
2022-09-14T15:28:27.676Z,99950.31
2022-09-14T15:30:54.307Z,99958.63
2022-09-14T15:33:20.896Z,99960.38
2022-09-14T15:35:54.822Z,99963.47
2022-09-14T15:38:21.483Z,99969.97
2022-09-14T15:40:48.060Z,99977.03
2022-09-14T15:43:14.638Z,99981.16
2022-09-14T15:45:42.997Z,99983.13
2022-09-14T15:48:17.683Z,100000.16
2022-09-14T15:50:46.720Z,99991.34
2022-09-14T15:53:15.335Z,99985.97
2022-09-14T15:55:44.186Z,99979.72
2022-09-14T15:58:11.436Z,99980.19
2022-09-14T16:00:43.244Z,99982.63
2022-09-14T16:03:10.059Z,99991.50
2022-09-14T16:05:40.099Z,99999.41
2022-09-14T16:08:06.867Z,99988.00
2022-09-14T16:10:33.867Z,99991.22
2022-09-14T16:13:00.536Z,99993.88
2022-09-14T16:15:27.121Z,99990.81
2022-09-14T16:17:54.241Z,99997.84
2022-09-14T16:20:21.333Z,100000.78
2022-09-14T16:22:49.334Z,99993.59
2022-09-14T16:25:16.657Z,99993.16
2022-09-14T16:27:44.158Z,100001.06
2022-09-14T16:30:11.104Z,99996.56
2022-09-14T16:32:37.812Z,100002.75
2022-09-14T16:35:08.147Z,100007.56
2022-09-14T16:37:35.232Z,100006.72
2022-09-14T16:40:02.706Z,100004.75
2022-09-14T16:42:29.384Z,100007.56
2022-09-14T16:44:55.946Z,100006.31
2022-09-14T16:47:22.639Z,100008.69
2022-09-14T16:49:49.387Z,100015.59
2022-09-14T16:52:15.948Z,100018.69
2022-09-14T16:54:42.582Z,100018.66
2022-09-14T16:57:09.463Z,100023.75
2022-09-14T16:59:36.142Z,100023.75
2022-09-14T17:02:02.972Z,100028.38
2022-09-14T17:04:29.741Z,100022.91
2022-09-14T17:06:56.798Z,100025.34
2022-09-14T17:09:26.463Z,100026.75
2022-09-14T17:11:54.360Z,100033.22
2022-09-14T17:14:23.812Z,100024.06
2022-09-14T17:16:50.797Z,100025.88
2022-09-14T17:19:17.905Z,100015.75
2022-09-14T17:21:45.731Z,100018.28
2022-09-14T17:24:13.636Z,100017.03
2022-09-14T17:26:41.563Z,100015.88
2022-09-14T17:29:08.401Z,100019.53
2022-09-14T17:31:38.158Z,100033.66
2022-09-14T17:34:07.004Z,100028.84
2022-09-14T17:36:34.028Z,100014.75
2022-09-14T17:39:09.224Z,100005.88
2022-09-14T17:41:39.118Z,100015.88
2022-09-14T17:44:07.176Z,100015.88
2022-09-14T17:46:34.638Z,100013.63
2022-09-14T17:49:04.725Z,100019.28
2022-09-14T17:51:32.279Z,100017.56
2022-09-14T17:54:00.716Z,100002.94
2022-09-14T17:56:28.740Z,100007.56
2022-09-14T17:59:21.556Z,100004.22
2022-09-14T18:01:49.071Z,100012.66
2022-09-14T18:04:18.398Z,100013.91
2022-09-14T18:06:47.852Z,100016.19
2022-09-14T18:09:20.475Z,100006.16
2022-09-14T18:11:47.775Z,100004.06
2022-09-14T18:14:22.052Z,100004.63
2022-09-14T18:17:09.316Z,100015.19
2022-09-14T18:19:35.955Z,100027.47
2022-09-14T18:22:02.698Z,100023.38
2022-09-14T18:24:29.825Z,100030.81
2022-09-14T18:26:56.478Z,100027.03
2022-09-14T18:29:23.807Z,100034.91
2022-09-14T18:31:52.177Z,100036.91
2022-09-14T18:34:19.632Z,100041.66
2022-09-14T18:36:46.433Z,100043.09
2022-09-14T18:39:13.565Z,100043.34
2022-09-14T18:41:40.323Z,100041.09
2022-09-14T18:44:07.219Z,100048.84
2022-09-14T18:46:33.875Z,100045.47
2022-09-14T18:49:01.567Z,100046.88
2022-09-14T18:51:29.667Z,100047.16
2022-09-14T18:54:04.500Z,100050.28
2022-09-14T18:56:34.535Z,100047.72
2022-09-14T18:59:02.785Z,100052.66
2022-09-14T19:01:29.487Z,100043.34
2022-09-14T19:03:56.625Z,100049.69
2022-09-14T19:06:23.696Z,100043.78
2022-09-14T19:08:50.590Z,100052.78
2022-09-14T19:11:23.352Z,100044.63
2022-09-14T19:13:55.473Z,100049.53
2022-09-14T19:16:22.113Z,100051.94
2022-09-14T19:18:49.577Z,100046.47
2022-09-14T19:21:27.371Z,100055.88
2022-09-14T19:24:01.925Z,100065.19
2022-09-14T19:26:31.411Z,100055.59
2022-09-14T19:29:00.688Z,100068.72
2022-09-14T19:31:30.466Z,100065.47
2022-09-14T19:33:58.325Z,100071.22
2022-09-14T19:36:25.354Z,100068.69
2022-09-14T19:38:52.347Z,100068.28
2022-09-14T19:41:20.274Z,100074.91
2022-09-14T19:43:47.064Z,100074.63
2022-09-14T19:46:19.478Z,100073.47
2022-09-14T19:48:46.772Z,100082.09
2022-09-14T19:51:18.744Z,100077.28
2022-09-14T19:53:50.198Z,100079.41
2022-09-14T19:56:19.626Z,100082.22
2022-09-14T19:58:48.470Z,100080.97
2022-09-14T20:01:19.992Z,100082.34
2022-09-14T20:03:47.710Z,100087.13
2022-09-14T20:06:21.066Z,100087.94
2022-09-14T20:08:48.633Z,100082.16
2022-09-14T20:11:19.955Z,100079.47
2022-09-14T20:13:48.608Z,100083.31
2022-09-14T20:16:30.896Z,100095.13
2022-09-14T20:19:02.659Z,100098.78
2022-09-14T20:21:29.212Z,100095.56
2022-09-14T20:24:15.202Z,100094.84
2022-09-14T20:26:43.572Z,100088.94
2022-09-14T20:29:10.176Z,100090.22
2022-09-14T20:31:37.297Z,100084.16
2022-09-14T20:34:04.538Z,100092.31
2022-09-14T20:36:31.161Z,100085.84
2022-09-14T20:38:59.404Z,100084.56
2022-09-14T20:41:28.757Z,100087.81
2022-09-14T20:43:55.659Z,100086.81
2022-09-14T20:46:35.285Z,100078.25
2022-09-14T20:49:04.277Z,100088.09
2022-09-14T20:51:31.242Z,100087.94
2022-09-14T20:53:58.366Z,100102.56
2022-09-14T20:56:27.540Z,100104.41
2022-09-14T20:58:56.555Z,100107.72
2022-09-14T21:01:24.829Z,100106.56
2022-09-14T21:03:51.559Z,100104.50
2022-09-14T21:06:27.397Z,100111.38
2022-09-14T21:08:54.182Z,100107.47
2022-09-14T21:11:23.596Z,100115.50
2022-09-14T21:13:51.970Z,100118.84
2022-09-14T21:16:19.875Z,100128.59
2022-09-14T21:18:47.968Z,100123.25
2022-09-14T21:21:17.253Z,100124.06
2022-09-14T21:23:44.109Z,100131.06
2022-09-14T21:26:11.874Z,100137.25
2022-09-14T21:28:39.862Z,100137.41
2022-09-14T21:31:18.084Z,100145.16
2022-09-14T21:33:50.446Z,100141.81
2022-09-14T21:36:22.390Z,100137.88
2022-09-14T21:38:53.817Z,100147.72
2022-09-14T21:41:21.827Z,100151.78
2022-09-14T21:43:48.409Z,100159.38
2022-09-14T21:46:15.929Z,100152.19
2022-09-14T21:48:42.769Z,100162.66
2022-09-14T21:51:18.534Z,100157.84
2022-09-14T21:53:50.471Z,100156.16
2022-09-14T21:56:18.242Z,100154.94
2022-09-14T21:58:49.923Z,100155.31
2022-09-14T22:01:17.293Z,100155.91
2022-09-14T22:03:45.191Z,100159.16
2022-09-14T22:06:13.368Z,100170.03
2022-09-14T22:08:40.329Z,100169.19
2022-09-14T22:11:10.761Z,100170.59
2022-09-14T22:13:37.532Z,100173.97
2022-09-14T22:16:17.746Z,100174.00
2022-09-14T22:18:53.301Z,100174.13
2022-09-14T22:21:21.696Z,100172.06
2022-09-14T22:23:50.385Z,100162.25
2022-09-14T22:26:17.021Z,100178.84
2022-09-14T22:28:43.627Z,100174.94
2022-09-14T22:31:10.261Z,100185.09
2022-09-14T22:33:36.938Z,100182.00
2022-09-14T22:36:04.468Z,100184.59
2022-09-14T22:38:34.328Z,100177.84
2022-09-14T22:41:03.345Z,100180.78
2022-09-14T22:43:30.869Z,100174.75
2022-09-14T22:45:58.340Z,100181.91
2022-09-14T22:48:24.944Z,100174.75
2022-09-14T22:50:52.995Z,100177.53
2022-09-14T22:53:20.326Z,100178.91
2022-09-14T22:55:47.287Z,100183.59
2022-09-14T22:58:15.285Z,100183.13
2022-09-14T23:00:42.685Z,100186.81
2022-09-14T23:03:10.311Z,100183.53
2022-09-14T23:05:39.870Z,100185.53
2022-09-14T23:08:08.164Z,100188.13
2022-09-14T23:10:38.264Z,100184.38
2022-09-14T23:13:04.964Z,100185.78
2022-09-14T23:15:31.833Z,100186.63
2022-09-14T23:17:58.506Z,100191.84
2022-09-14T23:20:25.149Z,100184.28
2022-09-14T23:22:51.713Z,100181.84
2022-09-14T23:25:18.290Z,100188.19
2022-09-14T23:27:45.009Z,100194.38
2022-09-14T23:30:12.238Z,100189.31
2022-09-14T23:32:38.826Z,100191.84
2022-09-14T23:35:07.426Z,100189.44
2022-09-14T23:37:34.024Z,100198.56
2022-09-14T23:40:00.679Z,100200.66
2022-09-14T23:42:27.297Z,100194.84
2022-09-14T23:44:53.849Z,100198.94
2022-09-14T23:47:20.674Z,100203.59
2022-09-14T23:49:47.313Z,100205.09
2022-09-14T23:52:14.005Z,100198.78
2022-09-14T23:54:40.590Z,100196.88
2022-09-14T23:57:10.002Z,100195.44
2022-09-14T23:59:36.701Z,100189.38
